createdAt,value
2023-05-17T00:03:43.737Z,12.20
2023-05-17T00:07:07.086Z,12.20
2023-05-17T00:13:17.302Z,12.20
2023-05-17T00:16:40.851Z,12.20
2023-05-17T00:22:52.827Z,12.30
2023-05-17T00:29:03.893Z,12.30
2023-05-17T00:35:14.074Z,12.30
2023-05-17T00:38:37.816Z,12.40
2023-05-17T00:44:50.077Z,12.40
2023-05-17T00:48:13.575Z,12.40
2023-05-17T00:54:24.553Z,12.40
2023-05-17T00:56:59.804Z,12.40
2023-05-17T01:04:04.563Z,12.40
2023-05-17T01:10:16.004Z,12.40
2023-05-17T01:13:39.360Z,12.40
2023-05-17T01:16:19.951Z,12.40
2023-05-17T01:22:41.585Z,12.40
2023-05-17T01:25:51.886Z,12.40
2023-05-17T01:35:44.796Z,12.50
2023-05-17T01:42:01.316Z,12.50
2023-05-17T01:48:19.347Z,12.50
2023-05-17T01:51:42.904Z,12.50
2023-05-17T01:57:57.777Z,12.40
2023-05-17T02:01:17.363Z,12.30
2023-05-17T02:07:27.462Z,12.30
2023-05-17T02:10:57.467Z,12.30
2023-05-17T02:14:27.569Z,12.30
2023-05-17T02:20:45.486Z,12.30
2023-05-17T02:26:55.618Z,12.20
2023-05-17T02:36:48.820Z,12.20
2023-05-17T02:40:12.174Z,12.20
2023-05-17T02:46:22.016Z,12.20
2023-05-17T02:49:45.658Z,12.20
2023-05-17T02:55:58.816Z,12.30
2023-05-17T03:02:08.825Z,12.20
2023-05-17T03:05:32.117Z,12.30
2023-05-17T03:11:43.557Z,12.30
2023-05-17T03:15:07.128Z,12.40
2023-05-17T03:21:17.172Z,12.30
2023-05-17T03:27:28.877Z,12.40
2023-05-17T03:37:19.581Z,12.50
2023-05-17T03:40:43.462Z,12.50
2023-05-17T03:46:55.119Z,12.50
2023-05-17T03:50:18.632Z,12.50
2023-05-17T03:56:29.040Z,12.50
2023-05-17T03:59:52.375Z,12.60
2023-05-17T04:06:08.759Z,12.60
2023-05-17T04:12:18.839Z,12.60
2023-05-17T04:18:28.856Z,12.60
2023-05-17T04:24:39.897Z,12.60
2023-05-17T04:30:49.618Z,12.60
2023-05-17T04:37:00.200Z,12.60
2023-05-17T04:43:11.439Z,12.60
2023-05-17T04:49:21.479Z,12.70
2023-05-17T04:52:44.590Z,12.70
2023-05-17T04:58:56.249Z,12.70
2023-05-17T05:05:10.453Z,12.70
2023-05-17T05:11:20.625Z,12.70
2023-05-17T05:17:32.995Z,12.70
2023-05-17T05:23:43.102Z,12.70
2023-05-17T05:29:52.942Z,12.60
2023-05-17T05:36:04.683Z,12.70
2023-05-17T05:42:15.622Z,12.70
2023-05-17T05:48:27.358Z,12.70
2023-05-17T05:54:38.668Z,12.70
2023-05-17T05:58:01.818Z,12.70
2023-05-17T06:04:11.986Z,12.80
2023-05-17T06:07:35.903Z,12.80
2023-05-17T06:13:47.922Z,12.90
2023-05-17T06:19:57.718Z,13.00
2023-05-17T06:23:21.231Z,13.10
2023-05-17T06:29:32.855Z,13.10
2023-05-17T06:35:54.839Z,13.00
2023-05-17T06:42:08.384Z,13.20
2023-05-17T06:48:20.065Z,13.20
2023-05-17T06:51:44.023Z,13.10
2023-05-17T06:57:54.384Z,13.20
2023-05-17T07:04:05.796Z,13.20
2023-05-17T07:10:15.837Z,13.30
2023-05-17T07:12:55.958Z,13.40
2023-05-17T07:16:19.335Z,13.50
2023-05-17T07:22:31.046Z,13.70
2023-05-17T07:28:41.299Z,13.80
2023-05-17T07:32:04.753Z,13.90
2023-05-17T07:45:38.096Z,14.90
2023-05-17T07:51:51.005Z,15.00
2023-05-17T07:58:01.021Z,14.90
2023-05-17T08:01:24.921Z,14.80
2023-05-17T08:07:39.153Z,14.70
2023-05-17T08:11:02.844Z,14.60
2023-05-17T08:17:12.760Z,14.80
2023-05-17T08:23:24.285Z,14.90
2023-05-17T08:26:47.940Z,14.80
2023-05-17T08:32:58.456Z,14.50
2023-05-17T08:42:52.264Z,14.30
2023-05-17T08:49:04.356Z,14.40
2023-05-17T08:52:28.139Z,14.40
2023-05-17T08:58:55.352Z,14.40
2023-05-17T09:02:20.451Z,14.50
2023-05-17T09:05:00.334Z,14.50
2023-05-17T09:11:10.576Z,14.70
2023-05-17T09:17:23.334Z,14.80
2023-05-17T09:20:47.240Z,14.90
2023-05-17T09:27:03.867Z,15.20
2023-05-17T09:34:09.030Z,15.00
2023-05-17T09:44:03.385Z,14.90
2023-05-17T09:50:20.653Z,15.00
2023-05-17T09:56:31.477Z,14.90
2023-05-17T10:02:44.297Z,14.80
2023-05-17T10:06:08.183Z,14.70
2023-05-17T10:12:24.367Z,14.70
2023-05-17T10:18:38.699Z,14.80
2023-05-17T10:24:49.568Z,14.90
2023-05-17T10:31:01.007Z,15.00
2023-05-17T10:34:24.462Z,15.00
2023-05-17T10:44:18.395Z,15.20
2023-05-17T10:47:06.710Z,15.00
2023-05-17T10:53:17.047Z,14.70
2023-05-17T10:56:40.522Z,14.90
2023-05-17T11:02:52.543Z,14.90
2023-05-17T11:09:10.051Z,14.70
2023-05-17T11:15:20.129Z,14.50
2023-05-17T11:18:39.737Z,14.60
2023-05-17T11:24:55.305Z,14.90
2023-05-17T11:31:05.768Z,15.10
2023-05-17T11:37:28.373Z,15.40
2023-05-17T11:40:07.729Z,15.20
2023-05-17T11:46:24.656Z,15.40
2023-05-17T11:49:03.287Z,15.20
2023-05-17T11:55:17.496Z,15.00
2023-05-17T12:01:27.539Z,15.10
2023-05-17T12:07:38.530Z,15.10
2023-05-17T12:11:02.289Z,14.90
2023-05-17T12:13:49.230Z,15.00
2023-05-17T12:20:10.002Z,14.80
2023-05-17T12:26:22.072Z,14.80
2023-05-17T12:32:33.703Z,15.00
2023-05-17T12:35:57.221Z,14.90
2023-05-17T12:45:49.850Z,14.70
2023-05-17T12:49:13.576Z,14.90
2023-05-17T12:52:08.369Z,14.80
2023-05-17T12:58:18.513Z,14.90
2023-05-17T13:04:32.690Z,15.10
2023-05-17T13:07:26.204Z,15.20
2023-05-17T13:13:36.750Z,15.20
2023-05-17T13:19:47.143Z,15.00
2023-05-17T13:25:58.543Z,14.80
2023-05-17T13:32:09.188Z,14.70
2023-05-17T13:38:19.723Z,14.50
2023-05-17T13:48:12.347Z,14.40
2023-05-17T13:51:36.443Z,14.30
2023-05-17T13:54:25.026Z,14.20
2023-05-17T14:00:34.882Z,14.10
2023-05-17T14:07:38.790Z,13.90
2023-05-17T14:13:50.349Z,13.80
2023-05-17T14:20:00.973Z,13.60
2023-05-17T14:26:12.125Z,13.50
2023-05-17T14:32:55.641Z,13.50
2023-05-17T14:36:19.412Z,13.50
2023-05-17T14:42:31.282Z,13.40
2023-05-17T14:48:41.661Z,13.40
2023-05-17T14:51:23.577Z,13.40
2023-05-17T14:57:35.462Z,13.60
2023-05-17T15:03:45.529Z,13.50
2023-05-17T15:09:55.794Z,13.60
2023-05-17T15:16:08.237Z,13.60
2023-05-17T15:19:10.887Z,13.60
2023-05-17T15:25:21.060Z,13.60
2023-05-17T15:31:33.119Z,13.40
2023-05-17T15:37:43.453Z,13.40
2023-05-17T15:43:53.543Z,13.40
2023-05-17T15:50:05.426Z,13.40
2023-05-17T15:56:17.600Z,13.50
2023-05-17T16:02:29.473Z,13.50
2023-05-17T16:08:41.185Z,13.40
2023-05-17T16:14:51.240Z,13.30
2023-05-17T16:17:38.129Z,13.20
2023-05-17T16:23:50.641Z,13.20
2023-05-17T16:33:41.905Z,13.10
2023-05-17T16:39:53.521Z,13.10
2023-05-17T16:49:45.178Z,13.00
2023-05-17T16:55:57.267Z,13.00
2023-05-17T17:02:08.036Z,12.90
2023-05-17T17:08:18.260Z,12.80
2023-05-17T17:14:29.757Z,12.40
2023-05-17T17:17:53.239Z,12.20
2023-05-17T17:24:04.474Z,12.10
2023-05-17T17:27:28.149Z,12.00
2023-05-17T17:33:39.679Z,11.70
2023-05-17T17:37:03.125Z,11.60
2023-05-17T17:43:13.302Z,11.60
2023-05-17T17:53:05.384Z,11.20
2023-05-17T17:56:29.114Z,11.00
2023-05-17T18:02:39.397Z,10.90
2023-05-17T18:08:51.698Z,10.80
2023-05-17T18:15:01.734Z,10.60
2023-05-17T18:18:25.525Z,10.50
2023-05-17T18:24:38.042Z,10.40
2023-05-17T18:28:01.809Z,10.40
2023-05-17T18:31:03.229Z,10.30
2023-05-17T18:37:13.664Z,10.30
2023-05-17T18:43:26.079Z,10.20
2023-05-17T18:53:17.089Z,10.10
2023-05-17T18:56:40.763Z,9.90
2023-05-17T19:02:52.568Z,9.90
2023-05-17T19:09:03.574Z,9.90
2023-05-17T19:12:27.209Z,9.80
2023-05-17T19:18:40.195Z,9.80
2023-05-17T19:24:51.353Z,9.70
2023-05-17T19:31:02.066Z,9.60
2023-05-17T19:37:14.515Z,9.40
2023-05-17T19:43:26.250Z,9.30
2023-05-17T19:49:36.812Z,9.30
2023-05-17T19:55:48.353Z,9.10
2023-05-17T19:59:12.049Z,9.00
2023-05-17T20:05:22.643Z,8.90
2023-05-17T20:11:34.697Z,8.80
2023-05-17T20:17:44.637Z,8.80
2023-05-17T20:21:08.064Z,8.70
2023-05-17T20:27:20.674Z,8.70
2023-05-17T20:33:30.889Z,8.60
2023-05-17T20:39:40.960Z,8.50
2023-05-17T20:45:54.027Z,8.50
2023-05-17T20:55:46.201Z,8.40
2023-05-17T21:01:58.001Z,8.40
2023-05-17T21:08:08.984Z,8.40
2023-05-17T21:14:18.902Z,8.40
2023-05-17T21:20:30.843Z,8.40
2023-05-17T21:26:41.397Z,8.30
2023-05-17T21:32:51.643Z,8.30
2023-05-17T21:36:15.262Z,8.30
2023-05-17T21:42:26.528Z,8.30
2023-05-17T21:45:18.915Z,8.30
2023-05-17T21:51:29.446Z,8.30
2023-05-17T21:57:40.962Z,8.30
2023-05-17T22:00:53.723Z,8.30
2023-05-17T22:04:17.462Z,8.30
2023-05-17T22:10:27.675Z,8.20
2023-05-17T22:16:40.302Z,8.10
2023-05-17T22:22:49.861Z,8.10
2023-05-17T22:28:59.979Z,8.10
2023-05-17T22:35:12.404Z,8.10
2023-05-17T22:41:25.386Z,8.10
2023-05-17T22:44:49.042Z,8.10
2023-05-17T22:51:01.199Z,8.00
2023-05-17T22:57:11.179Z,8.00
2023-05-17T23:00:35.278Z,7.90
2023-05-17T23:06:47.620Z,8.00
2023-05-17T23:10:11.486Z,7.90
2023-05-17T23:16:26.652Z,8.00
2023-05-17T23:22:38.368Z,7.90
2023-05-17T23:26:01.731Z,7.90
2023-05-17T23:32:12.094Z,7.80
2023-05-17T23:35:35.454Z,7.70
2023-05-17T23:41:50.733Z,7.70
2023-05-17T23:45:14.714Z,7.60
2023-05-17T23:51:24.922Z,7.40
2023-05-17T23:57:36.590Z,7.30
